createdAt,value
2023-03-06T00:01:28.871Z,10.14
2023-03-06T00:04:30.959Z,10.16
2023-03-06T00:07:33.199Z,10.14
2023-03-06T00:10:35.600Z,10.18
2023-03-06T00:13:38.657Z,10.23
2023-03-06T00:16:40.803Z,10.15
2023-03-06T00:19:42.994Z,10.11
2023-03-06T00:22:45.282Z,10.06
2023-03-06T00:25:47.441Z,10.06
2023-03-06T00:28:49.557Z,10.00
2023-03-06T00:31:52.319Z,9.99
2023-03-06T00:34:55.321Z,10.04
2023-03-06T00:37:59.729Z,9.97
2023-03-06T00:41:10.039Z,10.01
2023-03-06T00:44:12.231Z,9.98
2023-03-06T00:47:17.199Z,9.98
2023-03-06T00:50:19.538Z,10.01
2023-03-06T00:53:21.689Z,9.96
2023-03-06T00:56:25.137Z,9.93
2023-03-06T00:59:30.402Z,9.94
2023-03-06T01:02:32.821Z,9.95
2023-03-06T01:05:36.606Z,9.91
2023-03-06T01:08:38.795Z,9.95
2023-03-06T01:11:41.026Z,9.90
2023-03-06T01:14:43.128Z,9.91
2023-03-06T01:17:45.446Z,9.98
2023-03-06T01:20:47.645Z,9.98
2023-03-06T01:23:49.816Z,9.95
2023-03-06T01:26:51.932Z,9.99
2023-03-06T01:29:54.109Z,9.97
2023-03-06T01:32:56.980Z,9.93
2023-03-06T01:35:59.219Z,9.89
2023-03-06T01:39:01.445Z,9.91
2023-03-06T01:42:03.954Z,9.88
2023-03-06T01:45:09.528Z,9.88
2023-03-06T01:48:12.257Z,9.85
2023-03-06T01:51:14.871Z,9.88
2023-03-06T01:54:52.740Z,9.92
2023-03-06T01:57:57.716Z,9.97
2023-03-06T02:01:00.004Z,9.88
2023-03-06T02:04:02.464Z,9.87
2023-03-06T02:07:08.371Z,9.90
2023-03-06T02:10:10.976Z,9.91
2023-03-06T02:13:13.241Z,9.85
2023-03-06T02:16:16.313Z,9.88
2023-03-06T02:19:35.661Z,9.90
2023-03-06T02:22:44.404Z,9.98
2023-03-06T02:25:48.711Z,9.95
2023-03-06T02:28:50.940Z,9.96
2023-03-06T02:31:53.195Z,9.98
2023-03-06T02:34:57.206Z,10.03
2023-03-06T02:38:03.563Z,9.98
2023-03-06T02:41:08.440Z,9.99
2023-03-06T02:44:10.714Z,9.96
2023-03-06T02:47:13.007Z,10.00
2023-03-06T02:50:15.183Z,10.00
2023-03-06T02:53:18.944Z,9.99
2023-03-06T02:56:21.177Z,9.96
2023-03-06T02:59:23.523Z,9.99
2023-03-06T03:02:26.262Z,9.91
2023-03-06T03:05:28.508Z,9.87
2023-03-06T03:08:37.404Z,9.90
2023-03-06T03:11:40.492Z,9.94
2023-03-06T03:14:42.773Z,9.93
2023-03-06T03:17:45.053Z,9.86
2023-03-06T03:20:47.288Z,9.97
2023-03-06T03:23:49.727Z,9.98
2023-03-06T03:26:51.973Z,9.97
2023-03-06T03:30:00.340Z,9.88
2023-03-06T03:33:04.472Z,9.83
2023-03-06T03:36:08.563Z,9.78
2023-03-06T03:39:15.243Z,9.77
2023-03-06T03:42:18.223Z,9.81
2023-03-06T03:45:20.575Z,9.80
2023-03-06T03:48:22.859Z,9.76
2023-03-06T03:51:25.522Z,9.81
2023-03-06T03:54:30.281Z,9.82
2023-03-06T03:57:32.598Z,9.78
2023-03-06T04:00:35.619Z,9.74
2023-03-06T04:03:45.820Z,9.77
2023-03-06T04:06:50.869Z,9.80
2023-03-06T04:09:54.786Z,9.81
2023-03-06T04:13:00.186Z,9.83
2023-03-06T04:16:04.679Z,9.80
2023-03-06T04:19:08.794Z,9.84
2023-03-06T04:22:11.150Z,9.90
2023-03-06T04:25:14.796Z,9.92
2023-03-06T04:28:17.151Z,9.82
2023-03-06T04:31:19.932Z,9.82
2023-03-06T04:34:22.437Z,9.77
2023-03-06T04:37:25.761Z,9.81
2023-03-06T04:40:31.563Z,9.78
2023-03-06T04:43:39.541Z,9.89
2023-03-06T04:46:41.720Z,9.88
2023-03-06T04:49:43.834Z,9.85
2023-03-06T04:52:46.270Z,9.82
2023-03-06T04:55:48.474Z,9.77
2023-03-06T04:58:53.529Z,9.79
2023-03-06T05:01:55.932Z,9.83
2023-03-06T05:04:58.112Z,9.88
2023-03-06T05:08:00.313Z,9.85
2023-03-06T05:21:28.495Z,10.05
2023-03-06T05:24:33.575Z,10.13
2023-03-06T05:31:09.005Z,10.15
2023-03-06T05:34:28.057Z,10.09
2023-03-06T05:37:31.339Z,9.99
2023-03-06T05:40:34.031Z,10.16
2023-03-06T05:43:36.180Z,10.33
2023-03-06T05:46:38.529Z,10.36
2023-03-06T05:49:41.133Z,10.38
2023-03-06T05:52:43.710Z,10.39
2023-03-06T05:55:45.815Z,10.43
2023-03-06T05:58:48.318Z,10.52
2023-03-06T06:01:53.429Z,10.49
2023-03-06T06:04:55.645Z,10.56
2023-03-06T06:07:57.795Z,10.62
2023-03-06T06:11:00.021Z,10.74
2023-03-06T06:14:02.167Z,10.70
2023-03-06T06:17:04.647Z,10.73
2023-03-06T06:20:10.642Z,10.74
2023-03-06T06:23:13.151Z,10.72
2023-03-06T06:26:15.556Z,10.59
2023-03-06T06:29:18.170Z,10.63
2023-03-06T06:32:20.410Z,10.58
2023-03-06T06:35:23.415Z,10.58
2023-03-06T06:38:25.752Z,10.55
2023-03-06T06:41:46.292Z,10.53
2023-03-06T06:44:51.481Z,10.53
2023-03-06T06:47:53.808Z,10.51
2023-03-06T06:50:59.625Z,10.51
2023-03-06T06:54:01.863Z,10.51
2023-03-06T06:57:04.113Z,10.53
2023-03-06T07:00:09.428Z,10.57
2023-03-06T07:03:14.777Z,10.54
2023-03-06T07:06:17.105Z,10.54
2023-03-06T07:09:24.169Z,10.59
2023-03-06T07:12:26.492Z,10.58
2023-03-06T07:15:30.790Z,10.56
2023-03-06T07:18:32.948Z,10.59
2023-03-06T07:21:35.190Z,10.62
2023-03-06T07:24:37.382Z,10.62
2023-03-06T07:27:40.698Z,10.64
2023-03-06T07:30:43.261Z,10.65
2023-03-06T07:33:45.384Z,10.69
2023-03-06T07:36:47.571Z,10.70
2023-03-06T07:39:49.780Z,10.76
2023-03-06T07:43:09.140Z,10.73
2023-03-06T07:46:19.286Z,10.79
2023-03-06T07:49:21.641Z,10.76
2023-03-06T07:52:26.470Z,10.74
2023-03-06T07:55:29.910Z,10.77
2023-03-06T07:58:32.127Z,10.80
2023-03-06T08:01:36.506Z,10.82
2023-03-06T08:04:39.333Z,10.79
2023-03-06T08:07:42.778Z,10.79
2023-03-06T08:10:49.406Z,10.79
2023-03-06T08:13:52.949Z,10.82
2023-03-06T08:16:56.345Z,10.89
2023-03-06T08:19:58.530Z,10.90
2023-03-06T08:23:00.892Z,10.86
2023-03-06T08:26:06.258Z,10.86
2023-03-06T08:29:10.100Z,10.90
2023-03-06T08:32:12.646Z,10.93
2023-03-06T08:35:15.569Z,10.97
2023-03-06T08:38:18.049Z,11.00
2023-03-06T08:41:22.929Z,11.01
2023-03-06T08:44:26.316Z,10.98
2023-03-06T08:47:32.085Z,11.05
2023-03-06T08:50:41.880Z,11.09
2023-03-06T08:53:45.834Z,11.15
2023-03-06T08:56:48.073Z,11.24
2023-03-06T08:59:50.697Z,11.24
2023-03-06T09:02:57.542Z,11.30
2023-03-06T09:06:02.927Z,11.37
2023-03-06T09:09:06.904Z,11.37
2023-03-06T09:12:09.330Z,11.41
2023-03-06T09:15:12.760Z,11.47
2023-03-06T09:18:14.953Z,11.51
2023-03-06T09:21:17.161Z,11.61
2023-03-06T09:24:19.393Z,11.70
2023-03-06T09:27:22.756Z,11.73
2023-03-06T09:30:25.674Z,11.79
2023-03-06T09:33:28.766Z,11.93
2023-03-06T09:36:31.010Z,12.00
2023-03-06T09:39:34.191Z,12.20
2023-03-06T09:42:37.822Z,12.26
2023-03-06T09:45:40.550Z,12.25
2023-03-06T09:48:45.593Z,12.31
2023-03-06T09:52:08.709Z,12.38
2023-03-06T09:55:27.201Z,12.49
2023-03-06T09:58:32.292Z,12.55
2023-03-06T10:01:44.906Z,12.51
2023-03-06T10:04:55.838Z,12.53
2023-03-06T10:08:03.656Z,12.56
2023-03-06T10:11:09.336Z,12.61
2023-03-06T10:14:33.540Z,12.61
2023-03-06T10:17:38.279Z,12.67
2023-03-06T10:21:13.418Z,12.70
2023-03-06T10:24:38.201Z,12.63
2023-03-06T10:27:46.999Z,12.66
2023-03-06T10:31:00.341Z,12.66
2023-03-06T10:34:28.962Z,12.65
2023-03-06T10:37:32.571Z,12.62
2023-03-06T10:40:46.314Z,12.60
2023-03-06T10:44:00.720Z,12.50
2023-03-06T10:47:30.133Z,12.49
2023-03-06T10:50:34.531Z,12.42
2023-03-06T10:53:49.298Z,12.41
2023-03-06T10:56:54.271Z,12.41
2023-03-06T11:00:15.303Z,12.47
2023-03-06T11:03:30.726Z,12.50
2023-03-06T11:06:44.487Z,12.47
2023-03-06T11:10:02.286Z,12.54
2023-03-06T11:13:07.667Z,12.54
2023-03-06T11:16:44.826Z,12.57
2023-03-06T11:19:50.428Z,12.60
2023-03-06T11:22:56.771Z,12.64
2023-03-06T11:26:24.836Z,12.63
2023-03-06T11:29:44.713Z,12.59
2023-03-06T11:32:56.010Z,12.65
2023-03-06T11:36:12.511Z,12.65
2023-03-06T11:39:26.669Z,12.70
2023-03-06T11:42:43.659Z,12.74
2023-03-06T11:45:51.646Z,12.75
2023-03-06T11:49:14.065Z,12.75
2023-03-06T11:52:37.379Z,12.79
2023-03-06T11:56:19.255Z,12.83
2023-03-06T11:59:40.628Z,12.89
2023-03-06T12:03:11.538Z,12.94
2023-03-06T12:06:37.035Z,12.93
2023-03-06T12:09:56.798Z,12.94
2023-03-06T12:16:50.186Z,12.92
2023-03-06T12:20:32.233Z,12.91
2023-03-06T12:23:40.445Z,12.93
2023-03-06T12:26:59.929Z,12.88
2023-03-06T12:30:25.718Z,12.91
2023-03-06T12:34:02.208Z,12.94
2023-03-06T12:37:20.163Z,12.97
2023-03-06T12:40:26.581Z,12.94
2023-03-06T12:43:56.794Z,12.91
2023-03-06T12:47:15.181Z,12.92
2023-03-06T12:50:26.221Z,12.94
2023-03-06T12:53:35.216Z,12.97
2023-03-06T12:56:42.993Z,12.92
2023-03-06T12:59:49.294Z,12.88
2023-03-06T13:03:17.318Z,12.83
2023-03-06T13:06:30.898Z,12.90
2023-03-06T13:10:13.965Z,13.00
2023-03-06T13:13:41.702Z,13.07
2023-03-06T13:16:43.945Z,13.08
2023-03-06T13:19:46.696Z,13.03
2023-03-06T13:22:49.068Z,13.07
2023-03-06T13:25:51.398Z,13.08
2023-03-06T13:28:54.845Z,13.05
2023-03-06T13:32:00.037Z,13.06
2023-03-06T13:35:02.798Z,13.05
2023-03-06T13:38:17.216Z,12.92
2023-03-06T13:41:22.501Z,12.99
2023-03-06T13:44:24.708Z,13.03
2023-03-06T13:47:29.897Z,12.97
2023-03-06T13:50:45.315Z,13.00
2023-03-06T13:54:01.701Z,12.98
2023-03-06T13:57:10.398Z,12.95
2023-03-06T14:00:57.297Z,12.98
2023-03-06T14:04:11.402Z,12.94
2023-03-06T14:07:33.455Z,12.94
2023-03-06T14:10:37.082Z,12.91
2023-03-06T14:13:47.553Z,12.87
2023-03-06T14:16:53.525Z,12.87
2023-03-06T14:19:59.831Z,12.78
2023-03-06T14:23:28.008Z,12.82
2023-03-06T14:26:40.364Z,12.79
2023-03-06T14:29:42.643Z,12.86
2023-03-06T14:32:45.249Z,12.92
2023-03-06T14:35:51.544Z,13.04
2023-03-06T14:38:56.939Z,12.91
2023-03-06T14:42:29.159Z,12.69
2023-03-06T14:45:31.333Z,12.50
2023-03-06T14:48:45.318Z,12.58
2023-03-06T14:52:00.524Z,12.51
2023-03-06T14:55:02.929Z,12.45
2023-03-06T14:58:14.805Z,12.48
2023-03-06T15:01:23.131Z,12.50
2023-03-06T15:04:42.565Z,12.46
2023-03-06T15:07:45.481Z,12.36
2023-03-06T15:11:04.112Z,12.26
2023-03-06T15:14:06.331Z,12.16
2023-03-06T15:17:41.490Z,12.10
2023-03-06T15:20:54.128Z,12.19
2023-03-06T15:23:57.077Z,12.19
2023-03-06T15:27:14.289Z,12.10
2023-03-06T15:30:27.556Z,12.09
2023-03-06T15:33:30.122Z,12.15
2023-03-06T15:36:35.213Z,12.25
2023-03-06T15:39:39.461Z,12.20
2023-03-06T15:42:42.538Z,12.16
2023-03-06T15:45:44.781Z,12.08
2023-03-06T15:48:54.665Z,11.93
2023-03-06T15:51:56.956Z,11.93
2023-03-06T15:54:59.465Z,11.98
2023-03-06T15:58:04.921Z,11.96
2023-03-06T16:01:08.096Z,11.83
2023-03-06T16:04:10.390Z,11.75
2023-03-06T16:07:13.009Z,11.72
2023-03-06T16:10:23.015Z,11.76
2023-03-06T16:13:27.387Z,11.76
2023-03-06T16:16:36.630Z,11.68
2023-03-06T16:19:38.820Z,11.59
2023-03-06T16:22:41.056Z,11.61
2023-03-06T16:25:45.865Z,11.66
2023-03-06T16:28:49.601Z,11.73
2023-03-06T16:31:52.043Z,11.75
2023-03-06T16:34:54.146Z,11.69
2023-03-06T16:37:56.614Z,11.65
2023-03-06T16:40:58.798Z,11.69
2023-03-06T16:44:00.997Z,11.76
2023-03-06T16:47:03.178Z,11.71
2023-03-06T16:50:07.199Z,11.68
2023-03-06T16:53:09.378Z,11.63
2023-03-06T16:56:17.050Z,11.59
2023-03-06T16:59:19.290Z,11.62
2023-03-06T17:02:21.405Z,11.62
2023-03-06T17:05:24.365Z,11.60
2023-03-06T17:08:26.810Z,11.70
2023-03-06T17:11:29.394Z,11.67
2023-03-06T17:14:33.765Z,11.70
2023-03-06T17:17:36.011Z,11.63
2023-03-06T17:20:38.545Z,11.64
2023-03-06T17:23:40.912Z,11.72
2023-03-06T17:26:44.293Z,11.68
2023-03-06T17:29:46.604Z,11.65
2023-03-06T17:32:48.848Z,11.62
2023-03-06T17:35:57.739Z,11.59
2023-03-06T17:39:01.943Z,11.61
2023-03-06T17:42:04.739Z,11.64
2023-03-06T17:45:09.335Z,11.65
2023-03-06T17:48:11.875Z,11.52
2023-03-06T17:51:14.186Z,11.44
2023-03-06T17:54:16.414Z,11.37
2023-03-06T17:57:18.596Z,11.38
2023-03-06T18:00:22.840Z,11.16
2023-03-06T18:03:25.325Z,11.04
2023-03-06T18:06:30.144Z,11.04
2023-03-06T18:09:32.409Z,10.92
2023-03-06T18:12:34.607Z,10.91
2023-03-06T18:15:40.463Z,10.86
2023-03-06T18:18:42.805Z,10.82
2023-03-06T18:21:47.211Z,10.89
2023-03-06T18:24:49.371Z,10.90
2023-03-06T18:27:51.524Z,10.99
2023-03-06T18:30:53.635Z,10.89
2023-03-06T18:33:58.128Z,10.98
2023-03-06T18:37:00.247Z,11.03
2023-03-06T18:40:02.379Z,10.93
2023-03-06T18:43:04.518Z,11.04
2023-03-06T18:46:07.053Z,11.11
2023-03-06T18:49:11.062Z,11.11
2023-03-06T18:52:13.487Z,11.12
2023-03-06T18:55:15.811Z,11.13
2023-03-06T18:58:19.040Z,11.04
2023-03-06T19:01:22.435Z,10.97
2023-03-06T19:04:25.787Z,11.05
2023-03-06T19:07:27.931Z,11.15
2023-03-06T19:10:31.317Z,11.18
2023-03-06T19:13:33.632Z,11.27
2023-03-06T19:16:35.800Z,11.24
2023-03-06T19:19:38.009Z,11.13
2023-03-06T19:22:40.229Z,11.16
2023-03-06T19:25:42.479Z,11.26
2023-03-06T19:28:45.211Z,11.19
2023-03-06T19:31:47.466Z,11.16
2023-03-06T19:34:49.707Z,11.21
2023-03-06T19:37:52.327Z,11.19
2023-03-06T19:40:54.881Z,11.20
2023-03-06T19:43:59.668Z,11.18
2023-03-06T19:47:01.781Z,11.12
2023-03-06T19:50:04.263Z,11.08
2023-03-06T19:53:07.768Z,11.10
2023-03-06T19:56:31.885Z,11.10
2023-03-06T19:59:34.102Z,11.07
2023-03-06T20:02:36.501Z,11.12
2023-03-06T20:05:45.713Z,11.14
2023-03-06T20:08:48.924Z,11.14
2023-03-06T20:11:51.127Z,11.06
2023-03-06T20:14:53.336Z,11.07
2023-03-06T20:17:56.770Z,11.03
2023-03-06T20:21:00.896Z,10.98
2023-03-06T20:24:04.572Z,11.03
2023-03-06T20:27:06.921Z,11.02
2023-03-06T20:30:09.620Z,11.04
2023-03-06T20:33:11.854Z,10.96
2023-03-06T20:36:27.474Z,11.00
2023-03-06T20:39:29.716Z,10.93
2023-03-06T20:42:32.203Z,11.01
2023-03-06T20:45:34.586Z,10.97
2023-03-06T20:48:36.835Z,10.96
2023-03-06T20:51:39.733Z,10.91
2023-03-06T20:54:41.925Z,10.86
2023-03-06T20:57:44.097Z,10.83
2023-03-06T21:00:46.451Z,10.80
2023-03-06T21:03:49.488Z,10.91
2023-03-06T21:06:53.337Z,11.02
2023-03-06T21:09:55.712Z,10.96
2023-03-06T21:12:57.897Z,10.95
2023-03-06T21:16:03.904Z,10.93
2023-03-06T21:19:06.375Z,10.93
2023-03-06T21:22:08.637Z,10.91
2023-03-06T21:25:12.735Z,10.98
2023-03-06T21:28:15.164Z,11.02
2023-03-06T21:31:19.488Z,10.97
2023-03-06T21:34:21.631Z,10.93
2023-03-06T21:37:23.854Z,10.84
2023-03-06T21:40:26.005Z,10.86
2023-03-06T21:43:28.121Z,10.86
2023-03-06T21:46:30.468Z,10.92
2023-03-06T21:49:32.706Z,10.88
2023-03-06T21:52:34.910Z,10.88
2023-03-06T21:55:40.836Z,10.90
2023-03-06T21:58:43.347Z,10.87
2023-03-06T22:01:47.449Z,10.86
2023-03-06T22:04:53.229Z,10.83
2023-03-06T22:07:59.344Z,10.83
2023-03-06T22:11:08.851Z,10.81
2023-03-06T22:14:11.120Z,10.81
2023-03-06T22:17:13.628Z,10.80
2023-03-06T22:20:15.867Z,10.79
2023-03-06T22:23:18.095Z,10.77
2023-03-06T22:26:20.523Z,10.79
2023-03-06T22:29:23.972Z,10.75
2023-03-06T22:32:26.308Z,10.80
2023-03-06T22:35:28.545Z,10.76
2023-03-06T22:38:30.899Z,10.81
2023-03-06T22:41:33.150Z,10.83
2023-03-06T22:44:35.438Z,10.78
2023-03-06T22:47:37.746Z,10.78
2023-03-06T22:50:39.910Z,10.77
2023-03-06T22:53:42.740Z,10.82
2023-03-06T22:56:44.913Z,10.79
2023-03-06T22:59:47.103Z,10.76
2023-03-06T23:02:49.289Z,10.69
2023-03-06T23:05:51.472Z,10.74
2023-03-06T23:08:56.360Z,10.80
2023-03-06T23:11:58.715Z,10.75
2023-03-06T23:15:19.145Z,10.74
2023-03-06T23:18:40.686Z,10.69
2023-03-06T23:22:01.112Z,10.58
2023-03-06T23:25:21.961Z,10.65
2023-03-06T23:28:24.079Z,10.68
2023-03-06T23:31:28.837Z,10.61
2023-03-06T23:34:30.978Z,10.58
2023-03-06T23:37:33.222Z,10.60
2023-03-06T23:40:36.795Z,10.58
2023-03-06T23:43:39.244Z,10.54
2023-03-06T23:46:41.502Z,10.57
2023-03-06T23:49:43.708Z,10.58
2023-03-06T23:52:46.019Z,10.61
2023-03-06T23:55:50.304Z,10.65
2023-03-06T23:58:52.526Z,10.61
